Time;durP1;ratioP1;P1;durP2;ratioP2;P2;SDS_P1;SDS_P2;PMS_P1;PMS_P2;Temp;Humidity;BMP_temperature;BMP_pressure;BME280_temperature;BME280_humidity;BME280_pressure;Samples;Min_cycle;Max_cycle;Signal;HPM_P1;HPM_P2
2021/05/07 00:00:34;;;;;;;1.67;0.60;;;;;;;22.05;47.38;97438.16;5065425;28;20799;-64
2021/05/07 00:03:00;;;;;;;1.13;0.60;;;;;;;22.05;47.69;97431.03;5065214;28;20306;-60
2021/05/07 00:05:26;;;;;;;1.35;0.55;;;;;;;22.05;47.79;97438.16;5065352;28;20228;-59
2021/05/07 00:07:52;;;;;;;2.53;0.60;;;;;;;22.04;48.04;97432.00;5065107;28;20245;-62
2021/05/07 00:10:20;;;;;;;3.00;0.73;;;;;;;22.04;47.84;97437.34;5061481;28;20218;-61
2021/05/07 00:12:46;;;;;;;2.08;0.68;;;;;;;22.04;47.82;97450.66;5065453;28;20207;-62
2021/05/07 00:15:13;;;;;;;1.48;0.55;;;;;;;22.03;47.39;97445.50;5064755;28;20356;-61
2021/05/07 00:17:39;;;;;;;0.95;0.60;;;;;;;22.01;47.58;97448.34;5064736;28;20222;-65
2021/05/07 00:20:06;;;;;;;1.45;0.60;;;;;;;21.99;47.90;97450.38;5064870;28;20195;-65
2021/05/07 00:22:32;;;;;;;1.88;0.65;;;;;;;22.00;47.31;97460.00;5064725;28;20620;-60
2021/05/07 00:24:58;;;;;;;1.52;0.60;;;;;;;21.98;47.47;97456.69;5063173;28;20207;-61
2021/05/07 00:27:25;;;;;;;1.67;0.70;;;;;;;22.00;47.08;97446.72;5064213;28;20218;-61
2021/05/07 00:29:51;;;;;;;1.10;0.57;;;;;;;21.98;48.14;97443.38;5064800;28;20221;-63
2021/05/07 00:32:17;;;;;;;1.27;0.50;;;;;;;21.97;48.12;97457.72;5063494;28;20206;-63
2021/05/07 00:34:43;;;;;;;1.52;0.50;;;;;;;21.95;47.81;97463.22;5065342;28;20306;-62
2021/05/07 00:37:09;;;;;;;2.40;0.68;;;;;;;21.95;47.67;97459.72;5063882;28;20222;-60
2021/05/07 00:39:36;;;;;;;1.08;0.45;;;;;;;21.97;47.33;97463.03;5055948;28;20571;-68
2021/05/07 00:42:03;;;;;;;1.58;0.60;;;;;;;21.94;48.46;97458.06;5058868;28;20315;-65
2021/05/07 00:44:30;;;;;;;0.80;0.50;;;;;;;21.93;47.97;97451.94;5056494;28;20207;-62
2021/05/07 00:47:03;;;;;;;4.47;0.63;;;;;;;21.91;47.68;97463.75;5058547;28;20230;-60
2021/05/07 00:49:30;;;;;;;1.77;0.57;;;;;;;21.92;48.15;97468.88;5056250;28;20284;-61
2021/05/07 00:51:56;;;;;;;1.10;0.60;;;;;;;21.90;47.40;97468.25;5063455;28;20219;-59
2021/05/07 00:54:22;;;;;;;1.45;0.70;;;;;;;21.93;47.84;97461.72;5064304;28;20207;-61
2021/05/07 00:56:48;;;;;;;3.58;0.68;;;;;;;21.92;47.90;97460.09;5065884;28;20215;-60
2021/05/07 00:59:14;;;;;;;2.17;0.73;;;;;;;21.91;47.90;97469.06;5069322;28;20347;-64
2021/05/07 01:01:41;;;;;;;2.38;0.73;;;;;;;21.90;47.68;97470.06;5068348;28;20206;-61
2021/05/07 01:04:07;;;;;;;0.60;0.40;;;;;;;21.88;48.40;97477.41;5069204;28;20332;-59
2021/05/07 01:06:33;;;;;;;1.50;0.50;;;;;;;21.88;48.26;97480.88;5068416;28;20286;-57
2021/05/07 01:08:59;;;;;;;0.73;0.60;;;;;;;21.88;47.69;97474.75;5068462;28;20851;-64
2021/05/07 01:11:25;;;;;;;1.10;0.40;;;;;;;21.88;47.81;97472.09;5076532;28;20298;-67
2021/05/07 01:13:51;;;;;;;2.95;0.60;;;;;;;21.85;47.89;97481.28;5082445;28;20444;-66
2021/05/07 01:16:18;;;;;;;0.60;0.50;;;;;;;21.87;48.56;97483.75;5071159;28;20319;-64
2021/05/07 01:18:45;;;;;;;1.40;0.68;;;;;;;21.88;48.08;97480.06;5082230;28;20237;-63
2021/05/07 01:21:12;;;;;;;3.13;0.70;;;;;;;21.86;47.92;97485.56;5083569;28;20306;-63
2021/05/07 01:23:38;;;;;;;3.80;0.70;;;;;;;21.86;48.45;97492.72;5069156;28;20202;-64
2021/05/07 01:26:04;;;;;;;1.25;0.50;;;;;;;21.83;47.54;97488.56;5064228;28;20744;-60
2021/05/07 01:28:33;;;;;;;1.17;0.50;;;;;;;21.84;48.59;97487.59;5067086;28;20305;-62
2021/05/07 01:30:59;;;;;;;1.60;0.60;;;;;;;21.85;48.48;97499.91;5068202;28;20203;-64
2021/05/07 01:33:25;;;;;;;2.78;0.43;;;;;;;21.80;48.51;97499.59;5067927;28;20207;-63
2021/05/07 01:35:51;;;;;;;0.93;0.40;;;;;;;21.83;47.80;97503.72;5067047;28;20956;-62
2021/05/07 01:38:18;;;;;;;1.05;0.50;;;;;;;21.81;48.03;97496.75;5068017;28;20226;-65
2021/05/07 01:40:47;;;;;;;1.63;0.50;;;;;;;21.80;48.28;97492.44;5066231;28;20221;-63
2021/05/07 01:43:13;;;;;;;0.93;0.52;;;;;;;21.81;49.08;97502.06;5067523;28;20869;-66
2021/05/07 01:45:41;;;;;;;1.00;0.40;;;;;;;21.80;48.42;97497.75;5067668;28;20285;-63
2021/05/07 01:48:08;;;;;;;1.98;0.40;;;;;;;21.79;48.39;97505.91;5066522;28;20232;-65
2021/05/07 01:50:36;;;;;;;1.45;0.60;;;;;;;21.79;47.47;97509.41;5067026;28;20222;-62
2021/05/07 01:53:04;;;;;;;0.88;0.50;;;;;;;21.78;48.46;97510.41;5067006;28;20209;-64
2021/05/07 01:55:32;;;;;;;0.73;0.40;;;;;;;21.78;47.85;97512.25;5055002;28;20628;-64
2021/05/07 01:58:00;;;;;;;1.85;0.80;;;;;;;21.79;48.02;97512.06;5067024;28;20575;-61
2021/05/07 02:00:28;;;;;;;1.58;0.52;;;;;;;21.75;47.82;97508.13;5063102;28;20214;-63
2021/05/07 02:02:55;;;;;;;2.65;0.70;;;;;;;21.78;47.79;97502.44;5067645;28;20205;-65
2021/05/07 02:05:23;;;;;;;2.08;0.40;;;;;;;21.76;48.44;97504.44;5067194;28;20298;-62
2021/05/07 02:07:50;;;;;;;1.15;0.52;;;;;;;21.77;47.91;97500.78;5063653;28;20222;-61
2021/05/07 02:10:18;;;;;;;0.50;0.47;;;;;;;21.76;47.42;97501.78;5065276;28;20227;-64
2021/05/07 02:12:45;;;;;;;1.55;0.60;;;;;;;21.78;47.56;97504.25;5067125;28;20213;-65
2021/05/07 02:15:14;;;;;;;3.30;0.40;;;;;;;21.79;47.83;97508.56;5066294;28;20217;-62
2021/05/07 02:17:40;;;;;;;0.63;0.50;;;;;;;21.76;48.46;97504.44;5066962;28;20279;-61
2021/05/07 02:20:09;;;;;;;1.05;0.55;;;;;;;21.77;47.80;97495.47;5067077;28;21072;-66
2021/05/07 02:22:35;;;;;;;1.83;0.50;;;;;;;21.79;47.99;97509.41;5067871;28;20203;-63
2021/05/07 02:25:01;;;;;;;1.90;0.40;;;;;;;21.75;47.80;97505.47;5064669;28;21038;-63
2021/05/07 02:27:28;;;;;;;1.40;0.45;;;;;;;21.76;47.40;97515.06;5066370;28;20330;-63
2021/05/07 02:29:54;;;;;;;0.77;0.47;;;;;;;21.75;47.95;97513.44;5066574;28;20222;-63
2021/05/07 02:32:21;;;;;;;2.30;0.77;;;;;;;21.74;48.20;97519.75;5068162;28;20203;-60
2021/05/07 02:34:47;;;;;;;1.55;0.50;;;;;;;21.76;48.22;97524.91;5066868;28;20293;-61
2021/05/07 02:37:13;;;;;;;0.80;0.55;;;;;;;21.74;47.94;97522.41;5065990;28;20254;-65
2021/05/07 02:39:39;;;;;;;1.02;0.40;;;;;;;21.75;47.96;97517.91;5064765;28;20229;-66
2021/05/07 02:42:06;;;;;;;2.35;0.60;;;;;;;21.74;47.74;97514.44;5066186;28;20317;-64
2021/05/07 02:44:32;;;;;;;0.80;0.40;;;;;;;21.76;48.13;97517.72;5065829;28;20234;-63
2021/05/07 02:47:03;;;;;;;1.08;0.50;;;;;;;21.74;48.55;97524.25;5063978;28;20218;-61
2021/05/07 02:49:30;;;;;;;1.95;0.45;;;;;;;21.75;48.02;97524.06;5064455;28;20357;-64
2021/05/07 02:51:56;;;;;;;1.27;0.50;;;;;;;21.72;48.02;97521.75;5065620;28;20337;-60
2021/05/07 02:54:22;;;;;;;0.73;0.45;;;;;;;21.74;47.81;97527.72;5056810;28;20584;-67
2021/05/07 02:56:48;;;;;;;0.75;0.40;;;;;;;21.72;48.19;97529.75;5063707;28;20279;-61
2021/05/07 02:59:15;;;;;;;0.40;0.40;;;;;;;21.72;47.61;97532.41;5065466;28;20298;-58
2021/05/07 03:01:42;;;;;;;0.80;0.40;;;;;;;21.72;47.35;97535.06;5064850;28;20213;-61
2021/05/07 03:04:09;;;;;;;1.83;0.43;;;;;;;21.70;47.72;97537.09;5066003;28;20290;-63
2021/05/07 03:06:35;;;;;;;5.18;0.55;;;;;;;21.69;48.11;97530.09;5061742;28;20229;-62
2021/05/07 03:09:01;;;;;;;0.88;0.50;;;;;;;21.67;48.39;97531.28;5057950;28;20295;-64
2021/05/07 03:11:27;;;;;;;3.05;0.52;;;;;;;21.70;47.63;97534.44;5064463;28;20723;-62
2021/05/07 03:13:54;;;;;;;2.05;0.40;;;;;;;21.68;48.24;97533.75;5065148;28;20203;-60
2021/05/07 03:16:21;;;;;;;0.50;0.50;;;;;;;21.68;48.53;97531.09;5064208;28;20207;-60
2021/05/07 03:18:48;;;;;;;1.58;0.50;;;;;;;21.66;48.02;97540.28;5066554;28;20241;-62
2021/05/07 03:21:15;;;;;;;2.97;0.35;;;;;;;21.66;48.70;97541.09;5065475;28;20205;-57
2021/05/07 03:23:41;;;;;;;2.70;0.55;;;;;;;21.63;48.04;97546.75;5065048;28;20293;-59
2021/05/07 03:26:07;;;;;;;1.08;0.43;;;;;;;21.62;48.59;97547.78;5058648;28;20664;-61
2021/05/07 03:28:33;;;;;;;1.25;0.57;;;;;;;21.64;47.58;97553.75;5061939;28;20234;-64
2021/05/07 03:31:00;;;;;;;0.30;0.30;;;;;;;21.64;48.98;97552.94;5063927;28;20854;-61
2021/05/07 03:33:26;;;;;;;0.57;0.50;;;;;;;21.65;48.03;97560.72;5047298;28;20235;-66
2021/05/07 03:35:53;;;;;;;0.55;0.40;;;;;;;21.71;47.83;97565.31;5061235;28;20524;-62
2021/05/07 03:38:20;;;;;;;0.60;0.40;;;;;;;21.76;48.41;97556.81;5065896;28;20419;-63
2021/05/07 03:40:46;;;;;;;0.47;0.35;;;;;;;21.78;48.48;97557.47;5064415;28;20633;-59
2021/05/07 03:43:12;;;;;;;0.93;0.50;;;;;;;21.79;48.58;97567.94;5063793;28;20229;-60
2021/05/07 03:45:38;;;;;;;1.58;0.50;;;;;;;21.82;48.10;97564.09;5064828;28;20216;-56
2021/05/07 03:48:13;;;;;;;2.50;0.50;;;;;;;21.85;48.04;97577.06;5065846;28;20218;-62
2021/05/07 03:50:39;;;;;;;0.77;0.40;;;;;;;21.85;48.04;97576.19;5065550;28;20222;-64
2021/05/07 03:53:05;;;;;;;2.72;0.50;;;;;;;21.86;48.00;97584.00;5064593;28;20195;-64
2021/05/07 03:55:32;;;;;;;1.90;0.50;;;;;;;21.87;48.09;97585.69;5064115;28;20679;-65
2021/05/07 03:58:00;;;;;;;1.40;0.50;;;;;;;21.87;48.78;97579.53;5065239;28;20218;-61
2021/05/07 04:00:26;;;;;;;1.67;0.55;;;;;;;21.87;48.49;97591.00;5066038;28;20293;-64
2021/05/07 04:02:52;;;;;;;1.02;0.30;;;;;;;21.89;48.74;97598.81;5065602;28;20209;-63
2021/05/07 04:05:18;;;;;;;0.90;0.45;;;;;;;21.89;48.93;97593.47;5065109;28;20221;-60
2021/05/07 04:07:46;;;;;;;1.42;0.55;;;;;;;21.90;48.74;97603.09;5066060;28;20273;-59
2021/05/07 04:10:16;;;;;;;1.77;0.40;;;;;;;21.89;48.28;97609.44;5065042;28;21422;-62
2021/05/07 04:15:27;;;;;;;1.00;0.40;;;;;;;21.96;48.37;97621.03;5078124;28;20282;-62
2021/05/07 04:17:53;;;;;;;0.82;0.43;;;;;;;21.94;48.25;97617.72;5071507;28;20306;-61
2021/05/07 04:20:20;;;;;;;4.65;0.40;;;;;;;21.97;48.17;97612.88;5072794;28;20389;-64
2021/05/07 04:22:46;;;;;;;0.70;0.47;;;;;;;21.99;48.82;97620.69;5079096;28;20317;-62
2021/05/07 04:25:12;;;;;;;1.00;0.40;;;;;;;21.98;48.21;97624.34;5071028;28;20301;-62
2021/05/07 04:27:39;;;;;;;1.30;0.60;;;;;;;22.00;48.00;97625.00;5064533;28;20223;-62
2021/05/07 04:30:07;;;;;;;0.73;0.38;;;;;;;22.02;48.46;97630.16;5065012;28;20594;-64
2021/05/07 04:32:34;;;;;;;2.33;0.50;;;;;;;22.03;47.92;97626.47;5056002;28;20236;-64
2021/05/07 04:35:00;;;;;;;1.02;0.40;;;;;;;22.06;47.25;97628.78;5068986;28;20213;-67
2021/05/07 04:37:27;;;;;;;0.63;0.40;;;;;;;22.02;47.88;97636.31;5068466;28;20688;-63
2021/05/07 04:39:53;;;;;;;0.88;0.40;;;;;;;22.04;47.00;97644.94;5067420;28;20203;-65
2021/05/07 04:42:19;;;;;;;1.63;0.40;;;;;;;22.07;46.96;97646.44;5069475;28;20203;-63
2021/05/07 04:44:45;;;;;;;2.38;0.30;;;;;;;22.09;46.83;97655.06;5068841;28;20210;-60
2021/05/07 04:47:12;;;;;;;0.57;0.30;;;;;;;22.07;46.67;97654.41;5062120;28;20218;-62
2021/05/07 04:49:38;;;;;;;0.45;0.32;;;;;;;22.13;47.28;97654.53;5061887;28;20226;-65
2021/05/07 04:52:05;;;;;;;1.02;0.50;;;;;;;22.26;46.09;97661.09;5066342;28;20198;-69
2021/05/07 04:54:33;;;;;;;2.70;0.30;;;;;;;22.29;46.80;97663.44;5067060;28;20259;-63
2021/05/07 04:56:59;;;;;;;0.43;0.20;;;;;;;22.30;46.39;97667.72;5058732;28;20228;-65
2021/05/07 04:59:25;;;;;;;0.65;0.30;;;;;;;22.33;46.02;97670.03;5060623;28;20203;-63
2021/05/07 05:01:51;;;;;;;1.40;0.40;;;;;;;22.38;46.25;97675.66;5062267;28;20729;-62
2021/05/07 05:04:18;;;;;;;1.08;0.40;;;;;;;22.38;46.06;97683.63;5057765;28;20293;-62
2021/05/07 05:06:44;;;;;;;0.65;0.35;;;;;;;22.41;46.05;97683.28;5065671;28;20293;-66
2021/05/07 05:09:11;;;;;;;1.38;0.40;;;;;;;22.42;46.59;97682.28;5054140;28;20219;-64
2021/05/07 05:11:37;;;;;;;8.65;0.50;;;;;;;22.42;46.71;97692.13;5058839;28;20523;-64
2021/05/07 05:14:03;;;;;;;1.70;0.40;;;;;;;22.43;45.85;97691.94;5066490;28;20268;-65
2021/05/07 05:16:29;;;;;;;4.75;0.40;;;;;;;22.43;45.87;97696.44;5064845;28;20202;-63
2021/05/07 05:18:55;;;;;;;2.15;0.50;;;;;;;22.43;46.87;97696.44;5062445;28;20215;-63
2021/05/07 05:21:22;;;;;;;3.70;0.82;;;;;;;22.42;46.59;97694.78;5065621;28;20206;-65
2021/05/07 05:23:49;;;;;;;0.98;0.40;;;;;;;22.36;47.00;97701.63;5069453;28;20288;-64
2021/05/07 05:26:15;;;;;;;1.45;0.50;;;;;;;22.35;46.95;97705.31;5063105;28;20611;-65
2021/05/07 05:28:42;;;;;;;2.58;0.50;;;;;;;22.33;47.17;97712.63;5065605;28;20230;-63
2021/05/07 05:31:08;;;;;;;1.00;0.40;;;;;;;22.31;46.89;97710.16;5064012;28;20758;-62
2021/05/07 05:33:34;;;;;;;2.15;0.50;;;;;;;22.32;47.33;97711.00;5066638;28;20210;-63
2021/05/07 05:36:00;;;;;;;1.67;0.50;;;;;;;22.30;46.59;97718.31;5067160;28;20314;-63
2021/05/07 05:38:27;;;;;;;2.58;0.30;;;;;;;22.30;46.91;97728.97;5055499;28;20732;-64
2021/05/07 05:40:54;;;;;;;4.30;0.52;;;;;;;22.29;47.51;97738.78;5068112;28;20207;-63
2021/05/07 05:43:22;;;;;;;4.53;0.88;;;;;;;22.33;47.15;97728.63;5068352;28;20263;-60
2021/05/07 05:45:48;;;;;;;3.97;0.52;;;;;;;22.34;46.95;97732.94;5061877;28;20210;-59
2021/05/07 05:48:17;;;;;;;4.82;0.40;;;;;;;22.29;46.66;97737.97;5057877;28;20310;-62
2021/05/07 05:50:46;;;;;;;3.28;0.50;;;;;;;22.27;46.85;97737.31;5066765;28;20230;-62
2021/05/07 05:53:12;;;;;;;1.98;0.50;;;;;;;22.26;47.04;97740.97;5068031;28;20585;-63
2021/05/07 05:55:39;;;;;;;2.05;0.40;;;;;;;22.25;46.60;97741.94;5057951;28;20297;-60
2021/05/07 05:58:06;;;;;;;1.33;0.40;;;;;;;22.22;46.77;97737.00;5063697;28;20309;-64
2021/05/07 06:00:33;;;;;;;2.80;0.50;;;;;;;22.22;47.04;97745.00;5067766;28;20199;-61
2021/05/07 06:02:59;;;;;;;3.33;0.68;;;;;;;22.20;47.01;97752.31;5067219;28;20302;-63
2021/05/07 06:05:26;;;;;;;2.88;0.50;;;;;;;22.20;46.56;97754.97;5061329;28;20723;-62
2021/05/07 06:07:52;;;;;;;1.17;0.50;;;;;;;22.16;47.19;97742.00;5067156;28;20397;-63
2021/05/07 06:10:19;;;;;;;2.17;0.40;;;;;;;22.16;47.02;97755.31;5066056;28;20353;-64
2021/05/07 06:12:48;;;;;;;1.63;0.40;;;;;;;22.15;46.98;97766.97;5068284;28;20199;-63
2021/05/07 06:15:15;;;;;;;3.78;0.82;;;;;;;22.16;47.57;97762.47;5065245;28;20629;-62
2021/05/07 06:17:42;;;;;;;4.50;0.77;;;;;;;22.16;48.73;97760.63;5067027;28;20647;-61
2021/05/07 06:20:10;;;;;;;2.67;0.50;;;;;;;22.15;48.05;97768.81;5068487;28;20298;-61
2021/05/07 06:22:37;;;;;;;8.18;0.90;;;;;;;22.12;49.81;97775.31;5065847;28;20756;-63
2021/05/07 06:25:07;;;;;;;6.97;0.98;;;;;;;22.14;47.26;97781.28;5063937;28;20199;-64
2021/05/07 06:27:33;;;;;;;10.43;1.23;;;;;;;22.22;47.09;97776.94;5064251;28;20787;-63
2021/05/07 06:30:00;;;;;;;7.82;0.75;;;;;;;22.28;47.26;97770.88;5062188;28;20254;-64
2021/05/07 06:32:26;;;;;;;3.72;1.00;;;;;;;22.30;46.89;97766.25;5058419;28;20212;-64
2021/05/07 06:34:52;;;;;;;3.42;0.77;;;;;;;22.32;46.73;97774.91;5058887;28;20213;-63
2021/05/07 06:37:18;;;;;;;7.60;0.70;;;;;;;22.33;46.67;97789.88;5064033;28;21016;-62
2021/05/07 06:39:45;;;;;;;3.53;0.47;;;;;;;22.33;46.77;97796.03;5061546;28;20744;-62
2021/05/07 06:42:11;;;;;;;7.68;0.60;;;;;;;22.30;47.62;97799.03;5063654;28;20297;-62
2021/05/07 06:44:37;;;;;;;2.03;0.90;;;;;;;22.30;45.77;97800.84;5067363;28;20215;-65
2021/05/07 06:47:04;;;;;;;1.80;1.00;;;;;;;22.33;45.26;97804.03;5064887;28;20313;-64
2021/05/07 06:49:30;;;;;;;3.40;1.00;;;;;;;22.39;45.62;97807.81;5062933;28;20254;-61
2021/05/07 06:51:56;;;;;;;2.20;1.10;;;;;;;22.44;45.55;97804.63;5065235;28;20290;-65
2021/05/07 06:54:26;;;;;;;2.10;0.90;;;;;;;22.46;45.37;97807.94;5062818;28;20202;-61
2021/05/07 06:56:53;;;;;;;2.88;0.98;;;;;;;22.47;45.50;97826.41;5061423;28;20202;-63
2021/05/07 06:59:20;;;;;;;1.48;0.75;;;;;;;22.49;44.68;97826.22;5067256;28;20230;-66
2021/05/07 07:01:46;;;;;;;5.35;1.17;;;;;;;22.50;44.24;97826.06;5068630;28;20203;-64
2021/05/07 07:04:13;;;;;;;1.45;0.95;;;;;;;22.50;45.09;97814.59;5071474;28;20202;-65
2021/05/07 07:06:40;;;;;;;8.57;1.00;;;;;;;22.63;45.69;97827.31;5067987;28;20214;-69
2021/05/07 07:09:06;;;;;;;4.10;0.90;;;;;;;22.58;45.22;97825.16;5075697;28;20438;-62
2021/05/07 07:11:33;;;;;;;14.80;1.95;;;;;;;21.92;42.80;97833.44;5050700;28;20337;-63
2021/05/07 07:13:59;;;;;;;7.40;2.58;;;;;;;21.55;40.89;97842.00;5053193;28;20211;-65
2021/05/07 07:16:25;;;;;;;6.50;1.80;;;;;;;21.93;41.99;97845.75;5061593;28;20212;-62
2021/05/07 07:18:51;;;;;;;4.88;1.30;;;;;;;22.18;43.57;97849.16;5060247;28;20306;-63
2021/05/07 07:21:18;;;;;;;5.45;0.90;;;;;;;22.35;43.93;97849.13;5057018;28;20722;-62
2021/05/07 07:23:44;;;;;;;5.80;0.90;;;;;;;22.41;43.70;97853.72;5057156;28;20296;-62
2021/05/07 07:26:11;;;;;;;3.78;1.00;;;;;;;22.46;44.59;97864.69;5052944;28;20210;-63
2021/05/07 07:28:37;;;;;;;2.90;0.80;;;;;;;22.51;45.05;97862.34;5057533;28;20222;-62
2021/05/07 07:31:04;;;;;;;3.28;1.02;;;;;;;22.58;45.07;97874.97;5055828;28;20341;-62
2021/05/07 07:33:30;;;;;;;4.60;0.90;;;;;;;22.60;44.54;97872.94;5058419;28;20198;-60
2021/05/07 07:35:57;;;;;;;5.88;0.70;;;;;;;22.64;45.09;97879.59;5055925;28;20343;-64
2021/05/07 07:38:24;;;;;;;4.60;0.73;;;;;;;22.66;45.50;97878.41;5054013;28;20350;-61
2021/05/07 07:40:50;;;;;;;0.65;0.60;;;;;;;22.70;45.42;97882.38;5055407;28;20191;-62
2021/05/07 07:43:18;;;;;;;10.23;1.00;;;;;;;22.72;45.61;97891.03;5055227;28;21308;-60
2021/05/07 07:45:45;;;;;;;2.97;0.75;;;;;;;22.78;45.17;97892.16;5056248;28;20552;-61
2021/05/07 07:48:12;;;;;;;3.70;0.85;;;;;;;22.80;45.90;97892.84;5061885;28;20246;-61
2021/05/07 07:50:38;;;;;;;4.50;0.55;;;;;;;22.86;44.71;97893.94;5061042;28;20225;-63
2021/05/07 07:53:05;;;;;;;3.05;0.77;;;;;;;22.87;45.22;97892.97;5064532;28;20202;-60
2021/05/07 07:55:32;;;;;;;3.80;1.02;;;;;;;22.90;45.37;97896.09;5061319;28;20229;-64
2021/05/07 07:57:58;;;;;;;2.33;0.90;;;;;;;22.92;45.88;97902.06;5058923;28;20321;-60
2021/05/07 08:00:25;;;;;;;4.05;0.73;;;;;;;22.95;45.57;97913.38;5052925;28;20246;-67
2021/05/07 08:02:51;;;;;;;1.58;0.50;;;;;;;22.99;45.21;97914.69;5057773;28;20207;-60
2021/05/07 08:05:17;;;;;;;1.52;0.70;;;;;;;22.99;45.78;97920.03;5066674;28;20300;-60
2021/05/07 08:07:45;;;;;;;1.75;0.60;;;;;;;23.12;45.46;97909.66;5060568;28;20246;-64
2021/05/07 08:10:12;;;;;;;3.47;0.70;;;;;;;23.07;45.33;97914.69;5060469;28;20222;-62
2021/05/07 08:12:39;;;;;;;3.90;0.70;;;;;;;23.05;46.13;97922.00;5056820;28;20203;-59
2021/05/07 08:15:07;;;;;;;3.20;0.77;;;;;;;23.05;45.72;97925.50;5059202;28;20254;-57
2021/05/07 08:17:33;;;;;;;0.82;0.52;;;;;;;23.09;45.86;97920.66;5061381;28;20642;-59
2021/05/07 08:19:59;;;;;;;3.90;0.73;;;;;;;23.14;45.97;97928.94;5053623;28;20807;-59
2021/05/07 08:22:25;;;;;;;1.85;0.70;;;;;;;23.25;45.58;97933.88;5060441;28;20203;-53
2021/05/07 08:24:52;;;;;;;7.40;0.88;;;;;;;23.32;45.03;97936.66;5060805;28;20238;-59
2021/05/07 08:27:20;;;;;;;4.63;0.55;;;;;;;23.27;46.01;97942.53;5059120;28;20681;-62
2021/05/07 08:29:47;;;;;;;4.28;0.52;;;;;;;23.27;45.91;97950.53;5062770;28;20283;-60
2021/05/07 08:32:13;;;;;;;4.20;0.70;;;;;;;23.26;46.41;97954.22;5061846;28;20311;-64
2021/05/07 08:34:42;;;;;;;4.43;0.70;;;;;;;23.28;45.81;97957.53;5057693;28;20281;-63
2021/05/07 08:37:08;;;;;;;3.10;0.73;;;;;;;23.21;46.10;97964.56;5060834;28;20222;-62
2021/05/07 08:39:34;;;;;;;6.60;0.70;;;;;;;23.17;45.16;97967.78;5056060;28;20199;-63
2021/05/07 08:42:00;;;;;;;4.00;0.60;;;;;;;23.12;44.69;97964.81;5054172;28;20210;-60
2021/05/07 08:44:27;;;;;;;12.75;0.68;;;;;;;23.16;45.37;97969.59;5057000;28;20203;-59
2021/05/07 08:46:56;;;;;;;2.88;0.57;;;;;;;23.18;45.88;97972.94;5056189;28;20203;-60
2021/05/07 08:49:24;;;;;;;4.05;0.70;;;;;;;23.14;46.55;97971.63;5062939;28;20679;-59
2021/05/07 08:51:51;;;;;;;2.90;0.70;;;;;;;23.13;46.10;97979.78;5064291;28;20233;-62
2021/05/07 08:54:17;;;;;;;6.10;0.88;;;;;;;23.14;46.46;97981.47;5064828;28;20323;-62
2021/05/07 08:56:44;;;;;;;5.18;0.70;;;;;;;23.07;45.65;97990.16;5060972;28;20234;-57
2021/05/07 08:59:10;;;;;;;5.13;0.70;;;;;;;23.01;44.62;97988.16;5057208;28;20238;-60
2021/05/07 09:01:42;;;;;;;2.85;0.85;;;;;;;22.98;45.61;97993.84;5062317;28;20238;-57
2021/05/07 09:04:13;;;;;;;2.33;0.60;;;;;;;22.97;45.08;97997.50;5064006;28;20851;-59
2021/05/07 09:06:41;;;;;;;3.88;0.60;;;;;;;22.94;45.43;97997.03;5060588;28;20209;-60
2021/05/07 09:09:23;;;;;;;1.10;0.40;;;;;;;22.91;45.30;98007.06;5055105;28;20234;-58
2021/05/07 09:11:49;;;;;;;2.63;0.52;;;;;;;22.90;45.14;98000.03;5060793;28;20211;-56
2021/05/07 09:14:16;;;;;;;1.88;0.52;;;;;;;22.90;45.64;98002.72;5065175;28;20218;-57
2021/05/07 09:16:52;;;;;;;8.07;0.70;;;;;;;22.86;45.82;98006.72;5065357;28;20376;-59
2021/05/07 09:19:20;;;;;;;6.03;0.70;;;;;;;22.84;45.01;98010.56;5066306;28;20291;-55
2021/05/07 09:21:47;;;;;;;16.85;1.30;;;;;;;22.80;46.56;98007.44;5060713;28;20259;-57
2021/05/07 09:24:13;;;;;;;8.05;0.70;;;;;;;22.73;45.31;98022.41;5067946;28;20278;-60
2021/05/07 09:26:47;;;;;;;3.05;0.50;;;;;;;22.71;45.76;98024.44;5062208;28;20199;-58
2021/05/07 09:29:22;;;;;;;3.30;0.57;;;;;;;22.78;46.08;98013.91;5065584;28;20199;-60
2021/05/07 09:31:50;;;;;;;12.68;1.30;;;;;;;22.78;46.25;98022.72;5067183;28;20206;-61
2021/05/07 09:34:17;;;;;;;1.33;0.63;;;;;;;22.78;45.36;98020.06;5061571;28;20246;-58
2021/05/07 09:36:45;;;;;;;1.65;0.75;;;;;;;22.78;45.52;98046.72;5067426;28;20203;-60
2021/05/07 09:39:13;;;;;;;9.75;0.80;;;;;;;22.76;45.52;98038.06;5066476;28;20345;-56
2021/05/07 09:41:41;;;;;;;5.05;0.65;;;;;;;22.73;46.52;98049.06;5066681;28;20205;-60
2021/05/07 09:44:17;;;;;;;8.10;0.90;;;;;;;22.73;46.12;98046.41;5057381;28;20706;-60
2021/05/07 09:46:44;;;;;;;2.70;0.50;;;;;;;22.75;45.71;98044.41;5069916;28;20213;-53
2021/05/07 09:49:22;;;;;;;0.95;0.50;;;;;;;22.76;45.92;98050.56;5056058;28;20619;-59
2021/05/07 09:51:49;;;;;;;5.15;0.65;;;;;;;22.74;46.04;98050.75;5071779;28;20337;-57
2021/05/07 09:54:15;;;;;;;3.60;0.63;;;;;;;22.72;45.71;98047.44;5070842;28;21021;-61
2021/05/07 09:56:41;;;;;;;2.15;0.60;;;;;;;22.72;45.73;98053.56;5063311;28;20238;-53
2021/05/07 09:59:09;;;;;;;4.90;0.88;;;;;;;22.72;45.72;98060.75;5066470;28;20223;-53
2021/05/07 10:01:36;;;;;;;3.33;0.75;;;;;;;22.71;45.70;98048.41;5056153;28;20568;-56
2021/05/07 10:04:03;;;;;;;1.55;0.52;;;;;;;22.70;46.17;98060.91;5066646;28;20720;-57
2021/05/07 10:06:31;;;;;;;2.58;0.60;;;;;;;22.71;45.26;98057.22;5066584;28;20234;-57
2021/05/07 10:08:59;;;;;;;1.48;0.85;;;;;;;22.69;46.22;98074.41;5065320;28;20289;-59
2021/05/07 10:11:33;;;;;;;1.17;0.52;;;;;;;22.66;46.54;98077.41;5066859;28;20230;-59
2021/05/07 10:14:06;;;;;;;3.38;0.70;;;;;;;22.66;45.70;98080.06;5066457;28;20190;-59
2021/05/07 10:16:32;;;;;;;4.68;0.52;;;;;;;22.64;46.38;98079.41;5062253;28;20282;-64
2021/05/07 10:19:03;;;;;;;11.82;0.95;;;;;;;22.64;46.20;98092.75;5056951;28;20315;-59
2021/05/07 10:21:38;;;;;;;2.63;0.57;;;;;;;22.62;46.39;98084.91;5058695;28;20194;-62
2021/05/07 10:24:08;;;;;;;2.67;0.80;;;;;;;22.65;46.74;98089.91;5064777;28;20293;-59
2021/05/07 10:26:36;;;;;;;3.40;0.52;;;;;;;22.67;45.97;98092.41;5055263;28;20291;-66
2021/05/07 10:29:15;;;;;;;4.63;0.70;;;;;;;22.63;47.61;98107.06;5055933;28;20346;-62
2021/05/07 10:31:45;;;;;;;7.88;0.82;;;;;;;22.63;46.92;98107.06;5059482;28;20940;-60
2021/05/07 10:34:11;;;;;;;8.02;1.30;;;;;;;22.69;47.08;98103.72;5058856;28;20210;-56
2021/05/07 10:36:38;;;;;;;3.80;0.75;;;;;;;22.69;47.03;98112.53;5059500;28;20380;-60
2021/05/07 10:39:15;;;;;;;2.35;0.60;;;;;;;22.71;46.48;98107.84;5061043;28;20744;-64
2021/05/07 10:41:42;;;;;;;3.47;0.50;;;;;;;22.71;46.84;98115.03;5062161;28;20460;-59
2021/05/07 10:44:08;;;;;;;0.88;0.40;;;;;;;22.72;46.64;98112.19;5064897;28;20260;-60
2021/05/07 10:46:34;;;;;;;3.97;0.50;;;;;;;22.72;46.65;98122.84;5061281;28;20195;-66
2021/05/07 10:49:01;;;;;;;2.28;0.60;;;;;;;22.71;46.98;98126.50;5057584;28;20789;-63
2021/05/07 10:51:28;;;;;;;1.60;0.60;;;;;;;22.70;47.51;98118.72;5061603;28;20226;-59
2021/05/07 10:54:06;;;;;;;1.73;0.60;;;;;;;22.64;46.45;98122.88;5064128;28;20194;-60
2021/05/07 10:56:35;;;;;;;9.48;0.90;;;;;;;22.60;46.23;98134.03;5060279;28;20218;-65
2021/05/07 10:59:11;;;;;;;3.63;0.75;;;;;;;22.61;46.55;98125.03;5056791;28;20221;-65
2021/05/07 11:01:37;;;;;;;7.68;0.70;;;;;;;22.67;45.65;98129.72;5056860;28;20226;-61
2021/05/07 11:04:06;;;;;;;7.18;0.88;;;;;;;22.66;46.45;98144.03;5059386;28;20273;-62
2021/05/07 11:06:34;;;;;;;10.45;0.93;;;;;;;22.69;45.71;98154.34;5057595;28;20293;-58
2021/05/07 11:09:13;;;;;;;4.88;0.80;;;;;;;22.72;45.58;98156.69;5057211;28;20257;-59
2021/05/07 11:11:39;;;;;;;2.65;0.60;;;;;;;22.73;46.47;98150.31;5053641;28;20254;-61
2021/05/07 11:14:08;;;;;;;3.13;0.52;;;;;;;22.76;46.42;98154.50;5055266;28;20318;-60
2021/05/07 11:16:39;;;;;;;2.00;0.50;;;;;;;22.77;45.90;98149.00;5059898;28;20230;-53
2021/05/07 11:19:06;;;;;;;4.50;0.50;;;;;;;22.79;45.97;98155.00;5066814;28;20221;-58
2021/05/07 11:21:32;;;;;;;5.40;0.63;;;;;;;22.80;46.50;98151.34;5062917;28;20305;-57
2021/05/07 11:23:59;;;;;;;2.50;0.40;;;;;;;22.80;45.93;98159.34;5060711;28;20285;-61
2021/05/07 11:26:36;;;;;;;4.30;0.60;;;;;;;22.81;45.53;98158.31;5060007;28;20207;-56
2021/05/07 11:29:03;;;;;;;4.03;0.57;;;;;;;22.83;46.81;98161.66;5064312;28;20694;-56
2021/05/07 11:31:29;;;;;;;2.00;0.70;;;;;;;22.79;46.11;98162.97;5062825;28;20309;-58
2021/05/07 11:33:55;;;;;;;2.42;0.60;;;;;;;22.82;46.08;98175.16;5065611;28;20231;-59
2021/05/07 11:36:21;;;;;;;1.83;0.50;;;;;;;22.84;46.31;98171.31;5058527;28;20289;-59